createdAt,value
2022-10-29T00:01:17.470Z,18.60
2022-10-29T00:06:16.999Z,18.50
2022-10-29T00:11:17.019Z,18.50
2022-10-29T00:16:16.871Z,18.40
2022-10-29T00:21:18.280Z,18.40
2022-10-29T00:26:16.947Z,18.40
2022-10-29T00:31:18.867Z,18.30
2022-10-29T00:36:21.737Z,18.30
2022-10-29T00:41:22.063Z,18.20
2022-10-29T00:46:28.113Z,18.20
2022-10-29T00:51:30.908Z,18.20
2022-10-29T00:56:32.722Z,18.20
2022-10-29T01:01:30.941Z,18.10
2022-10-29T01:06:32.000Z,18.10
2022-10-29T01:11:41.316Z,18.00
2022-10-29T01:16:47.374Z,18.00
2022-10-29T01:21:49.229Z,17.90
2022-10-29T01:27:23.588Z,17.90
2022-10-29T01:32:32.460Z,17.90
2022-10-29T01:37:39.397Z,17.80
2022-10-29T01:42:40.329Z,17.80
2022-10-29T01:47:43.560Z,17.80
2022-10-29T01:52:42.545Z,17.80
2022-10-29T01:57:40.711Z,17.70
2022-10-29T02:02:56.123Z,17.70
2022-10-29T02:08:00.864Z,17.70
2022-10-29T02:12:59.596Z,17.60
2022-10-29T02:18:02.264Z,17.50
2022-10-29T02:23:00.830Z,17.50
2022-10-29T02:27:59.012Z,17.50
2022-10-29T02:32:57.514Z,17.50
2022-10-29T02:37:57.364Z,17.40
2022-10-29T02:42:56.101Z,17.40
2022-10-29T02:47:54.754Z,17.40
2022-10-29T02:52:53.091Z,17.30
2022-10-29T02:57:53.033Z,17.30
2022-10-29T03:02:52.725Z,17.30
2022-10-29T03:07:51.038Z,17.30
2022-10-29T03:12:49.159Z,17.30
2022-10-29T03:17:48.621Z,17.20
2022-10-29T03:22:46.728Z,17.20
2022-10-29T03:27:46.261Z,17.10
2022-10-29T03:32:45.122Z,17.10
2022-10-29T03:37:44.698Z,17.10
2022-10-29T03:42:42.870Z,17.10
2022-10-29T03:47:41.082Z,17.00
2022-10-29T03:52:39.425Z,17.00
2022-10-29T03:57:38.990Z,16.90
2022-10-29T04:02:37.268Z,16.90
2022-10-29T04:07:35.503Z,16.80
2022-10-29T04:12:33.657Z,16.80
2022-10-29T04:17:33.145Z,16.80
2022-10-29T04:28:41.984Z,16.70
2022-10-29T04:33:09.354Z,16.70
2022-10-29T04:38:09.559Z,16.60
2022-10-29T04:43:07.707Z,16.50
2022-10-29T04:48:07.531Z,16.50
2022-10-29T04:53:08.362Z,16.40
2022-10-29T04:58:06.969Z,16.40
2022-10-29T05:03:05.276Z,16.40
2022-10-29T05:08:04.697Z,16.40
2022-10-29T05:13:05.709Z,16.30
2022-10-29T05:18:04.258Z,16.30
2022-10-29T05:23:03.498Z,16.30
2022-10-29T05:28:04.887Z,16.20
2022-10-29T05:33:03.306Z,16.20
2022-10-29T05:38:01.505Z,16.20
2022-10-29T05:43:00.185Z,16.20
2022-10-29T05:48:01.721Z,16.20
2022-10-29T05:53:01.993Z,16.20
2022-10-29T05:58:01.126Z,16.20
2022-10-29T06:03:01.372Z,16.20
2022-10-29T06:08:01.498Z,16.20
2022-10-29T06:12:59.833Z,16.20
2022-10-29T06:17:58.392Z,16.20
2022-10-29T06:23:01.102Z,16.20
2022-10-29T06:28:01.213Z,16.20
2022-10-29T06:33:00.211Z,16.20
2022-10-29T06:38:00.522Z,16.20
2022-10-29T06:43:03.103Z,16.20
2022-10-29T06:48:01.313Z,16.20
2022-10-29T06:53:02.093Z,16.10
2022-10-29T06:58:01.486Z,16.10
2022-10-29T07:03:00.707Z,16.10
2022-10-29T07:08:01.693Z,16.10
2022-10-29T07:13:00.276Z,16.10
2022-10-29T07:17:59.676Z,16.20
2022-10-29T07:29:47.687Z,16.20
2022-10-29T07:34:46.326Z,16.20
2022-10-29T07:39:44.478Z,16.30
2022-10-29T07:44:42.632Z,16.30
2022-10-29T07:49:42.654Z,16.40
2022-10-29T07:54:40.807Z,16.40
2022-10-29T07:59:38.928Z,16.50
2022-10-29T08:04:37.096Z,16.50
2022-10-29T08:09:36.644Z,16.50
2022-10-29T08:14:34.810Z,16.60
2022-10-29T08:26:22.730Z,16.80
2022-10-29T08:31:21.306Z,16.70
2022-10-29T08:36:19.437Z,16.80
2022-10-29T08:41:36.255Z,16.90
2022-10-29T08:46:44.615Z,17.00
2022-10-29T08:51:45.875Z,17.00
2022-10-29T08:57:45.662Z,17.10
2022-10-29T09:02:45.543Z,17.20
2022-10-29T09:08:02.442Z,17.20
2022-10-29T09:13:28.408Z,17.30
2022-10-29T09:18:37.707Z,17.40
2022-10-29T09:23:50.213Z,17.50
2022-10-29T09:29:05.501Z,17.70
2022-10-29T09:34:12.225Z,17.80
2022-10-29T09:39:15.322Z,17.90
2022-10-29T09:44:23.682Z,18.00
2022-10-29T09:49:36.646Z,18.10
2022-10-29T09:54:35.861Z,18.20
2022-10-29T09:59:39.761Z,18.20
2022-10-29T10:04:46.345Z,18.30
2022-10-29T10:09:56.458Z,18.40
2022-10-29T10:15:19.504Z,18.60
2022-10-29T10:20:32.312Z,18.80
2022-10-29T10:25:38.584Z,18.90
2022-10-29T10:30:36.845Z,19.10
2022-10-29T10:35:37.062Z,19.20
2022-10-29T10:40:35.885Z,19.30
2022-10-29T10:45:40.230Z,19.40
2022-10-29T10:50:40.109Z,19.50
2022-10-29T10:55:39.601Z,19.60
2022-10-29T11:00:42.266Z,19.70
2022-10-29T11:05:48.109Z,19.90
2022-10-29T11:10:51.396Z,20.00
2022-10-29T11:15:55.354Z,20.00
2022-10-29T11:21:04.446Z,20.10
2022-10-29T11:26:09.059Z,20.20
2022-10-29T11:31:15.613Z,20.20
2022-10-29T11:36:20.605Z,20.30
2022-10-29T11:41:27.054Z,20.40
2022-10-29T11:46:35.886Z,20.40
2022-10-29T11:51:44.437Z,20.50
2022-10-29T11:56:53.829Z,20.60
2022-10-29T12:01:58.454Z,20.60
2022-10-29T12:07:14.451Z,20.70
2022-10-29T12:12:19.379Z,20.70
2022-10-29T12:17:24.355Z,20.70
2022-10-29T12:22:38.376Z,20.80
2022-10-29T12:27:41.196Z,20.90
2022-10-29T12:32:48.112Z,21.00
2022-10-29T12:37:59.507Z,21.00
2022-10-29T12:43:05.257Z,21.00
2022-10-29T12:48:11.804Z,21.00
2022-10-29T12:53:21.075Z,21.00
2022-10-29T12:58:44.639Z,21.00
2022-10-29T13:04:02.300Z,21.10
2022-10-29T13:09:17.171Z,21.20
2022-10-29T13:14:22.436Z,21.20
2022-10-29T13:19:29.834Z,21.20
2022-10-29T13:24:30.700Z,21.20
2022-10-29T13:29:50.479Z,21.20
2022-10-29T13:34:59.531Z,21.20
2022-10-29T13:40:30.962Z,21.20
2022-10-29T13:45:31.397Z,21.30
2022-10-29T13:50:31.513Z,21.30
2022-10-29T13:55:33.302Z,21.30
2022-10-29T14:00:36.081Z,21.40
2022-10-29T14:05:39.486Z,21.40
2022-10-29T14:10:48.355Z,21.40
2022-10-29T14:16:04.228Z,21.40
2022-10-29T14:21:03.831Z,21.40
2022-10-29T14:26:04.070Z,21.40
2022-10-29T14:31:08.543Z,21.40
2022-10-29T14:36:14.028Z,21.40
2022-10-29T14:41:12.860Z,21.40
2022-10-29T14:53:04.802Z,21.30
2022-10-29T14:58:06.796Z,21.20
2022-10-29T15:03:05.589Z,21.20
2022-10-29T15:08:15.779Z,21.10
2022-10-29T15:13:24.145Z,21.10
2022-10-29T15:18:23.557Z,21.00
2022-10-29T15:23:27.237Z,21.00
2022-10-29T15:28:27.919Z,20.90
2022-10-29T15:33:29.288Z,20.90
2022-10-29T15:39:08.053Z,20.80
2022-10-29T15:44:29.031Z,20.80
2022-10-29T15:49:31.353Z,20.70
2022-10-29T15:54:32.263Z,20.70
2022-10-29T15:59:30.432Z,20.60
2022-10-29T16:04:28.549Z,20.60
2022-10-29T16:09:57.579Z,20.50
2022-10-29T16:14:57.107Z,20.40
2022-10-29T16:19:55.376Z,20.30
2022-10-29T16:24:53.473Z,20.20
2022-10-29T16:29:51.777Z,20.10
2022-10-29T16:34:52.184Z,20.00
2022-10-29T16:39:50.420Z,19.90
2022-10-29T16:44:48.528Z,19.90
2022-10-29T16:49:46.663Z,19.90
2022-10-29T16:54:46.342Z,19.80
2022-10-29T17:06:33.102Z,19.70
2022-10-29T17:11:32.602Z,19.60
2022-10-29T17:16:30.827Z,19.60
2022-10-29T17:21:31.255Z,19.60
2022-10-29T17:26:29.457Z,19.50
2022-10-29T17:38:24.611Z,19.50
2022-10-29T17:43:22.797Z,19.30
2022-10-29T17:48:24.044Z,19.30
2022-10-29T17:53:25.685Z,19.20
2022-10-29T17:58:23.844Z,19.20
2022-10-29T18:03:25.573Z,19.10
2022-10-29T18:08:25.105Z,19.00
2022-10-29T18:13:23.250Z,19.00
2022-10-29T18:18:21.422Z,19.00
2022-10-29T18:23:19.534Z,18.90
2022-10-29T18:28:19.020Z,18.90
2022-10-29T18:33:17.111Z,18.80
2022-10-29T18:38:15.212Z,18.80
2022-10-29T18:43:14.217Z,18.80
2022-10-29T18:48:13.842Z,18.70
2022-10-29T18:53:12.049Z,18.70
2022-10-29T18:58:10.213Z,18.60
2022-10-29T19:03:08.362Z,18.60
2022-10-29T19:08:09.424Z,18.60
2022-10-29T19:13:08.039Z,18.50
2022-10-29T19:18:07.215Z,18.50
2022-10-29T19:23:07.058Z,18.50
2022-10-29T19:28:05.467Z,18.40
2022-10-29T19:33:07.747Z,18.40
2022-10-29T19:38:07.805Z,18.40
2022-10-29T19:43:05.967Z,18.40
2022-10-29T19:48:04.176Z,18.40
2022-10-29T19:53:02.588Z,18.40
2022-10-29T19:58:02.085Z,18.30
2022-10-29T20:09:55.440Z,18.30
2022-10-29T20:14:54.982Z,18.20
2022-10-29T20:19:53.356Z,18.20
2022-10-29T20:25:52.490Z,18.20
2022-10-29T20:30:51.987Z,18.20
2022-10-29T20:35:50.064Z,18.20
2022-10-29T20:40:52.527Z,18.10
2022-10-29T20:45:51.979Z,18.10
2022-10-29T20:50:52.720Z,18.10
2022-10-29T20:55:51.794Z,18.10
2022-10-29T21:00:51.856Z,18.00
2022-10-29T21:05:49.993Z,18.00
2022-10-29T21:10:48.312Z,18.00
2022-10-29T21:15:46.461Z,18.00
2022-10-29T21:20:45.934Z,18.00
2022-10-29T21:25:44.080Z,18.00
2022-10-29T21:30:44.789Z,17.90
2022-10-29T21:35:43.547Z,17.90
2022-10-29T21:40:43.778Z,17.90
2022-10-29T21:45:42.882Z,17.90
2022-10-29T21:50:41.383Z,17.90
2022-10-29T21:55:39.539Z,17.90
2022-10-29T22:00:39.020Z,17.90
2022-10-29T22:05:37.107Z,17.80
2022-10-29T22:10:35.236Z,17.80
2022-10-29T22:15:33.357Z,17.80
2022-10-29T22:20:32.826Z,17.80
2022-10-29T22:25:30.967Z,17.70
2022-10-29T22:30:29.080Z,17.70
2022-10-29T22:35:27.194Z,17.70
2022-10-29T22:40:26.668Z,17.70
2022-10-29T22:45:24.764Z,17.70
2022-10-29T22:50:23.127Z,17.60
2022-10-29T22:55:21.284Z,17.60
2022-10-29T23:00:20.904Z,17.60
2022-10-29T23:05:19.073Z,17.60
2022-10-29T23:10:17.235Z,17.60
2022-10-29T23:15:15.438Z,17.60
2022-10-29T23:20:14.965Z,17.60
2022-10-29T23:25:13.110Z,17.50
2022-10-29T23:30:12.559Z,17.50
2022-10-29T23:35:10.733Z,17.50
2022-10-29T23:40:11.876Z,17.50
2022-10-29T23:45:13.784Z,17.50
2022-10-29T23:50:11.951Z,17.40
2022-10-29T23:55:11.692Z,17.40
